sensor_id;sensor_type;location;lat;lon;timestamp;P1;durP1;ratioP1;P2;durP2;ratioP2
5147;SDS011;2592;48.140;7.614;2023-05-07T00:02:25;4.70;;;3.60;;
5147;SDS011;2592;48.140;7.614;2023-05-07T00:04:51;5.50;;;3.07;;
5147;SDS011;2592;48.140;7.614;2023-05-07T00:07:18;6.93;;;3.63;;
5147;SDS011;2592;48.140;7.614;2023-05-07T00:09:44;7.43;;;3.67;;
5147;SDS011;2592;48.140;7.614;2023-05-07T00:12:11;10.03;;;5.33;;
5147;SDS011;2592;48.140;7.614;2023-05-07T00:14:39;4.57;;;3.57;;
5147;SDS011;2592;48.140;7.614;2023-05-07T00:17:05;7.77;;;4.07;;
5147;SDS011;2592;48.140;7.614;2023-05-07T00:19:31;12.20;;;4.30;;
5147;SDS011;2592;48.140;7.614;2023-05-07T00:21:58;9.23;;;4.40;;
5147;SDS011;2592;48.140;7.614;2023-05-07T00:24:24;6.70;;;3.67;;
5147;SDS011;2592;48.140;7.614;2023-05-07T00:26:51;7.77;;;4.37;;
5147;SDS011;2592;48.140;7.614;2023-05-07T00:29:17;9.00;;;3.83;;
5147;SDS011;2592;48.140;7.614;2023-05-07T00:31:45;5.77;;;4.17;;
5147;SDS011;2592;48.140;7.614;2023-05-07T00:34:12;11.23;;;5.33;;
5147;SDS011;2592;48.140;7.614;2023-05-07T00:36:38;7.63;;;4.10;;
5147;SDS011;2592;48.140;7.614;2023-05-07T00:39:05;6.83;;;4.53;;
5147;SDS011;2592;48.140;7.614;2023-05-07T00:41:31;5.80;;;3.67;;
5147;SDS011;2592;48.140;7.614;2023-05-07T00:43:58;6.97;;;3.63;;
5147;SDS011;2592;48.140;7.614;2023-05-07T00:46:25;5.60;;;4.17;;
5147;SDS011;2592;48.140;7.614;2023-05-07T00:48:53;9.17;;;4.00;;
5147;SDS011;2592;48.140;7.614;2023-05-07T00:51:20;5.17;;;3.70;;
5147;SDS011;2592;48.140;7.614;2023-05-07T00:53:47;14.83;;;4.50;;
5147;SDS011;2592;48.140;7.614;2023-05-07T00:56:13;7.43;;;4.20;;
5147;SDS011;2592;48.140;7.614;2023-05-07T00:58:40;5.87;;;3.57;;
5147;SDS011;2592;48.140;7.614;2023-05-07T01:01:07;5.40;;;4.00;;
5147;SDS011;2592;48.140;7.614;2023-05-07T01:03:33;7.03;;;4.40;;
5147;SDS011;2592;48.140;7.614;2023-05-07T01:06:01;9.10;;;4.63;;
5147;SDS011;2592;48.140;7.614;2023-05-07T01:08:28;9.27;;;4.80;;
5147;SDS011;2592;48.140;7.614;2023-05-07T01:10:55;7.10;;;5.03;;
5147;SDS011;2592;48.140;7.614;2023-05-07T01:13:22;10.17;;;4.20;;
5147;SDS011;2592;48.140;7.614;2023-05-07T01:15:49;10.27;;;4.30;;
5147;SDS011;2592;48.140;7.614;2023-05-07T01:18:16;10.30;;;4.13;;
5147;SDS011;2592;48.140;7.614;2023-05-07T01:20:42;5.00;;;3.67;;
5147;SDS011;2592;48.140;7.614;2023-05-07T01:23:10;15.93;;;3.67;;
5147;SDS011;2592;48.140;7.614;2023-05-07T01:25:37;11.53;;;3.90;;
5147;SDS011;2592;48.140;7.614;2023-05-07T01:28:03;9.87;;;3.60;;
5147;SDS011;2592;48.140;7.614;2023-05-07T01:30:30;8.63;;;3.50;;
5147;SDS011;2592;48.140;7.614;2023-05-07T01:33:00;6.50;;;3.70;;
5147;SDS011;2592;48.140;7.614;2023-05-07T01:35:29;6.30;;;3.90;;
5147;SDS011;2592;48.140;7.614;2023-05-07T01:37:56;7.13;;;4.37;;
5147;SDS011;2592;48.140;7.614;2023-05-07T01:40:24;8.47;;;4.63;;
5147;SDS011;2592;48.140;7.614;2023-05-07T01:42:51;5.17;;;3.90;;
5147;SDS011;2592;48.140;7.614;2023-05-07T01:45:18;14.20;;;4.10;;
5147;SDS011;2592;48.140;7.614;2023-05-07T01:47:45;6.17;;;3.90;;
5147;SDS011;2592;48.140;7.614;2023-05-07T01:50:11;8.83;;;3.83;;
5147;SDS011;2592;48.140;7.614;2023-05-07T01:52:38;6.50;;;4.27;;
5147;SDS011;2592;48.140;7.614;2023-05-07T01:55:05;9.03;;;3.37;;
5147;SDS011;2592;48.140;7.614;2023-05-07T01:57:33;5.30;;;3.90;;
5147;SDS011;2592;48.140;7.614;2023-05-07T02:00:00;4.83;;;4.10;;
5147;SDS011;2592;48.140;7.614;2023-05-07T02:02:27;6.80;;;4.30;;
5147;SDS011;2592;48.140;7.614;2023-05-07T02:04:54;7.10;;;3.67;;
5147;SDS011;2592;48.140;7.614;2023-05-07T02:07:20;6.47;;;4.80;;
5147;SDS011;2592;48.140;7.614;2023-05-07T02:09:47;7.97;;;3.63;;
5147;SDS011;2592;48.140;7.614;2023-05-07T02:12:13;8.67;;;4.83;;
5147;SDS011;2592;48.140;7.614;2023-05-07T02:14:41;8.07;;;4.97;;
5147;SDS011;2592;48.140;7.614;2023-05-07T02:17:08;6.80;;;4.43;;
5147;SDS011;2592;48.140;7.614;2023-05-07T02:19:34;4.23;;;3.20;;
5147;SDS011;2592;48.140;7.614;2023-05-07T02:22:01;6.27;;;4.53;;
5147;SDS011;2592;48.140;7.614;2023-05-07T02:24:27;7.17;;;3.50;;
5147;SDS011;2592;48.140;7.614;2023-05-07T02:26:54;6.77;;;3.80;;
5147;SDS011;2592;48.140;7.614;2023-05-07T02:29:20;5.27;;;3.43;;
5147;SDS011;2592;48.140;7.614;2023-05-07T02:31:48;8.77;;;3.93;;
5147;SDS011;2592;48.140;7.614;2023-05-07T02:34:15;5.67;;;4.00;;
5147;SDS011;2592;48.140;7.614;2023-05-07T02:36:42;6.63;;;4.10;;
5147;SDS011;2592;48.140;7.614;2023-05-07T02:39:08;11.83;;;4.20;;
5147;SDS011;2592;48.140;7.614;2023-05-07T02:41:35;12.60;;;4.20;;
5147;SDS011;2592;48.140;7.614;2023-05-07T02:44:01;8.90;;;3.23;;
5147;SDS011;2592;48.140;7.614;2023-05-07T02:46:28;7.60;;;4.30;;
5147;SDS011;2592;48.140;7.614;2023-05-07T02:48:55;5.33;;;3.77;;
5147;SDS011;2592;48.140;7.614;2023-05-07T02:51:22;5.20;;;3.80;;
5147;SDS011;2592;48.140;7.614;2023-05-07T02:53:49;4.90;;;4.00;;
5147;SDS011;2592;48.140;7.614;2023-05-07T02:56:15;4.80;;;3.50;;
5147;SDS011;2592;48.140;7.614;2023-05-07T02:58:42;6.47;;;4.57;;
5147;SDS011;2592;48.140;7.614;2023-05-07T03:01:08;5.70;;;3.80;;
5147;SDS011;2592;48.140;7.614;2023-05-07T03:03:35;7.60;;;3.43;;
5147;SDS011;2592;48.140;7.614;2023-05-07T03:06:03;5.63;;;3.87;;
5147;SDS011;2592;48.140;7.614;2023-05-07T03:08:29;7.67;;;3.30;;
5147;SDS011;2592;48.140;7.614;2023-05-07T03:10:56;6.60;;;3.83;;
5147;SDS011;2592;48.140;7.614;2023-05-07T03:13:22;5.07;;;4.07;;
5147;SDS011;2592;48.140;7.614;2023-05-07T03:15:49;4.30;;;3.90;;
5147;SDS011;2592;48.140;7.614;2023-05-07T03:18:15;11.40;;;4.23;;
5147;SDS011;2592;48.140;7.614;2023-05-07T03:20:42;5.27;;;4.10;;
5147;SDS011;2592;48.140;7.614;2023-05-07T03:23:10;5.43;;;4.90;;
5147;SDS011;2592;48.140;7.614;2023-05-07T03:25:36;11.63;;;4.30;;
5147;SDS011;2592;48.140;7.614;2023-05-07T03:28:03;4.50;;;4.10;;
5147;SDS011;2592;48.140;7.614;2023-05-07T03:30:29;10.27;;;4.80;;
5147;SDS011;2592;48.140;7.614;2023-05-07T03:32:56;5.70;;;4.30;;
5147;SDS011;2592;48.140;7.614;2023-05-07T03:35:22;8.20;;;3.97;;
5147;SDS011;2592;48.140;7.614;2023-05-07T03:37:49;13.93;;;3.90;;
5147;SDS011;2592;48.140;7.614;2023-05-07T03:40:17;6.77;;;4.10;;
5147;SDS011;2592;48.140;7.614;2023-05-07T03:42:43;4.53;;;3.70;;
5147;SDS011;2592;48.140;7.614;2023-05-07T03:45:10;9.03;;;4.13;;
5147;SDS011;2592;48.140;7.614;2023-05-07T03:47:36;6.87;;;4.80;;
5147;SDS011;2592;48.140;7.614;2023-05-07T03:50:03;7.10;;;4.13;;
5147;SDS011;2592;48.140;7.614;2023-05-07T03:52:30;6.50;;;3.43;;
5147;SDS011;2592;48.140;7.614;2023-05-07T03:54:56;8.83;;;3.50;;
5147;SDS011;2592;48.140;7.614;2023-05-07T03:57:24;4.03;;;3.63;;
5147;SDS011;2592;48.140;7.614;2023-05-07T03:59:50;5.33;;;4.40;;
5147;SDS011;2592;48.140;7.614;2023-05-07T04:02:17;8.13;;;4.23;;
5147;SDS011;2592;48.140;7.614;2023-05-07T04:04:43;6.30;;;4.83;;
5147;SDS011;2592;48.140;7.614;2023-05-07T04:07:10;5.63;;;4.00;;
5147;SDS011;2592;48.140;7.614;2023-05-07T04:09:36;5.97;;;4.37;;
5147;SDS011;2592;48.140;7.614;2023-05-07T04:12:03;7.00;;;4.03;;
5147;SDS011;2592;48.140;7.614;2023-05-07T04:14:31;5.40;;;3.70;;
5147;SDS011;2592;48.140;7.614;2023-05-07T04:16:58;4.87;;;4.00;;
5147;SDS011;2592;48.140;7.614;2023-05-07T04:19:24;4.10;;;3.70;;
5147;SDS011;2592;48.140;7.614;2023-05-07T04:21:51;5.10;;;4.13;;
5147;SDS011;2592;48.140;7.614;2023-05-07T04:24:17;6.57;;;4.40;;
5147;SDS011;2592;48.140;7.614;2023-05-07T04:26:44;8.00;;;4.60;;
5147;SDS011;2592;48.140;7.614;2023-05-07T04:29:10;6.00;;;5.20;;
5147;SDS011;2592;48.140;7.614;2023-05-07T04:31:39;7.23;;;4.13;;
5147;SDS011;2592;48.140;7.614;2023-05-07T04:34:05;7.63;;;4.30;;
5147;SDS011;2592;48.140;7.614;2023-05-07T04:36:32;7.43;;;4.33;;
5147;SDS011;2592;48.140;7.614;2023-05-07T04:38:59;5.93;;;4.60;;
5147;SDS011;2592;48.140;7.614;2023-05-07T04:41:25;5.93;;;4.37;;
5147;SDS011;2592;48.140;7.614;2023-05-07T04:43:52;4.10;;;3.70;;
5147;SDS011;2592;48.140;7.614;2023-05-07T04:46:19;9.13;;;4.63;;
5147;SDS011;2592;48.140;7.614;2023-05-07T04:48:46;9.90;;;4.20;;
5147;SDS011;2592;48.140;7.614;2023-05-07T04:51:13;4.00;;;3.60;;
5147;SDS011;2592;48.140;7.614;2023-05-07T04:53:39;5.80;;;3.73;;
5147;SDS011;2592;48.140;7.614;2023-05-07T04:56:06;4.30;;;3.50;;
5147;SDS011;2592;48.140;7.614;2023-05-07T04:58:32;4.10;;;3.80;;
5147;SDS011;2592;48.140;7.614;2023-05-07T05:00:59;4.50;;;3.17;;
5147;SDS011;2592;48.140;7.614;2023-05-07T05:03:26;3.73;;;3.40;;
5147;SDS011;2592;48.140;7.614;2023-05-07T05:05:54;3.70;;;3.40;;
5147;SDS011;2592;48.140;7.614;2023-05-07T05:08:22;9.27;;;3.87;;
5147;SDS011;2592;48.140;7.614;2023-05-07T05:10:48;5.30;;;3.57;;
5147;SDS011;2592;48.140;7.614;2023-05-07T05:13:15;4.77;;;3.40;;
5147;SDS011;2592;48.140;7.614;2023-05-07T05:15:41;5.83;;;3.50;;
5147;SDS011;2592;48.140;7.614;2023-05-07T05:18:08;4.80;;;3.67;;
5147;SDS011;2592;48.140;7.614;2023-05-07T05:20:34;6.73;;;4.07;;
5147;SDS011;2592;48.140;7.614;2023-05-07T05:23:02;4.87;;;3.80;;
5147;SDS011;2592;48.140;7.614;2023-05-07T05:25:28;6.70;;;4.60;;
5147;SDS011;2592;48.140;7.614;2023-05-07T05:27:55;16.97;;;11.60;;
5147;SDS011;2592;48.140;7.614;2023-05-07T05:30:22;12.17;;;4.77;;
5147;SDS011;2592;48.140;7.614;2023-05-07T05:32:48;11.57;;;4.10;;
5147;SDS011;2592;48.140;7.614;2023-05-07T05:35:15;5.90;;;4.17;;
5147;SDS011;2592;48.140;7.614;2023-05-07T05:37:41;7.93;;;4.47;;
5147;SDS011;2592;48.140;7.614;2023-05-07T05:40:09;6.80;;;3.20;;
5147;SDS011;2592;48.140;7.614;2023-05-07T05:42:36;7.43;;;4.27;;
5147;SDS011;2592;48.140;7.614;2023-05-07T05:45:03;8.27;;;5.60;;
5147;SDS011;2592;48.140;7.614;2023-05-07T05:47:29;9.60;;;4.73;;
5147;SDS011;2592;48.140;7.614;2023-05-07T05:49:56;10.07;;;5.23;;
5147;SDS011;2592;48.140;7.614;2023-05-07T05:52:22;11.87;;;4.57;;
5147;SDS011;2592;48.140;7.614;2023-05-07T05:54:49;7.90;;;4.60;;
5147;SDS011;2592;48.140;7.614;2023-05-07T05:57:17;6.90;;;4.57;;
5147;SDS011;2592;48.140;7.614;2023-05-07T05:59:43;6.67;;;4.90;;
5147;SDS011;2592;48.140;7.614;2023-05-07T06:02:10;9.40;;;5.47;;
5147;SDS011;2592;48.140;7.614;2023-05-07T06:04:36;8.60;;;6.37;;
5147;SDS011;2592;48.140;7.614;2023-05-07T06:07:03;5.67;;;4.60;;
5147;SDS011;2592;48.140;7.614;2023-05-07T06:09:29;11.53;;;6.00;;
5147;SDS011;2592;48.140;7.614;2023-05-07T06:11:56;11.03;;;5.63;;
5147;SDS011;2592;48.140;7.614;2023-05-07T06:14:24;11.77;;;5.60;;
5147;SDS011;2592;48.140;7.614;2023-05-07T06:16:50;7.83;;;4.83;;
5147;SDS011;2592;48.140;7.614;2023-05-07T06:19:17;12.93;;;5.13;;
5147;SDS011;2592;48.140;7.614;2023-05-07T06:21:48;9.77;;;5.70;;
5147;SDS011;2592;48.140;7.614;2023-05-07T06:24:14;7.93;;;4.57;;
5147;SDS011;2592;48.140;7.614;2023-05-07T06:26:41;9.20;;;4.80;;
5147;SDS011;2592;48.140;7.614;2023-05-07T06:29:07;7.77;;;5.20;;
5147;SDS011;2592;48.140;7.614;2023-05-07T06:31:35;8.83;;;5.40;;
5147;SDS011;2592;48.140;7.614;2023-05-07T06:34:01;12.03;;;4.60;;
5147;SDS011;2592;48.140;7.614;2023-05-07T06:36:28;12.60;;;5.00;;
5147;SDS011;2592;48.140;7.614;2023-05-07T06:38:54;10.00;;;5.93;;
5147;SDS011;2592;48.140;7.614;2023-05-07T06:41:21;9.90;;;5.30;;
5147;SDS011;2592;48.140;7.614;2023-05-07T06:43:47;7.53;;;5.70;;
5147;SDS011;2592;48.140;7.614;2023-05-07T06:46:14;6.60;;;4.50;;
5147;SDS011;2592;48.140;7.614;2023-05-07T06:48:42;7.77;;;4.77;;
5147;SDS011;2592;48.140;7.614;2023-05-07T06:51:08;7.17;;;4.43;;
5147;SDS011;2592;48.140;7.614;2023-05-07T06:53:35;10.00;;;4.97;;
5147;SDS011;2592;48.140;7.614;2023-05-07T06:56:01;12.60;;;5.23;;
5147;SDS011;2592;48.140;7.614;2023-05-07T06:58:28;7.20;;;4.90;;
5147;SDS011;2592;48.140;7.614;2023-05-07T07:00:54;8.97;;;6.07;;
5147;SDS011;2592;48.140;7.614;2023-05-07T07:03:20;8.67;;;5.00;;
5147;SDS011;2592;48.140;7.614;2023-05-07T07:05:48;6.73;;;5.47;;
5147;SDS011;2592;48.140;7.614;2023-05-07T07:08:17;12.13;;;5.93;;
5147;SDS011;2592;48.140;7.614;2023-05-07T07:10:43;10.93;;;5.80;;
5147;SDS011;2592;48.140;7.614;2023-05-07T07:13:10;9.13;;;6.00;;
5147;SDS011;2592;48.140;7.614;2023-05-07T07:15:36;9.87;;;5.50;;
5147;SDS011;2592;48.140;7.614;2023-05-07T07:18:03;6.47;;;5.67;;
5147;SDS011;2592;48.140;7.614;2023-05-07T07:20:30;11.60;;;7.30;;
5147;SDS011;2592;48.140;7.614;2023-05-07T07:22:58;11.00;;;7.10;;
5147;SDS011;2592;48.140;7.614;2023-05-07T07:25:24;11.87;;;6.37;;
5147;SDS011;2592;48.140;7.614;2023-05-07T07:27:51;11.03;;;5.53;;
5147;SDS011;2592;48.140;7.614;2023-05-07T07:30:17;9.20;;;5.80;;
5147;SDS011;2592;48.140;7.614;2023-05-07T07:32:44;10.73;;;5.73;;
5147;SDS011;2592;48.140;7.614;2023-05-07T07:35:10;7.63;;;5.57;;
5147;SDS011;2592;48.140;7.614;2023-05-07T07:37:36;6.00;;;4.73;;
5147;SDS011;2592;48.140;7.614;2023-05-07T07:40:05;12.10;;;5.03;;
5147;SDS011;2592;48.140;7.614;2023-05-07T07:42:32;7.70;;;5.30;;
5147;SDS011;2592;48.140;7.614;2023-05-07T07:44:58;9.30;;;5.37;;
5147;SDS011;2592;48.140;7.614;2023-05-07T07:47:25;11.63;;;5.10;;
5147;SDS011;2592;48.140;7.614;2023-05-07T07:49:51;8.10;;;5.23;;
5147;SDS011;2592;48.140;7.614;2023-05-07T07:52:18;10.33;;;6.13;;
5147;SDS011;2592;48.140;7.614;2023-05-07T07:54:44;8.60;;;6.17;;
5147;SDS011;2592;48.140;7.614;2023-05-07T07:57:12;6.13;;;5.33;;
5147;SDS011;2592;48.140;7.614;2023-05-07T07:59:38;9.63;;;5.93;;
5147;SDS011;2592;48.140;7.614;2023-05-07T08:02:07;11.80;;;6.00;;
5147;SDS011;2592;48.140;7.614;2023-05-07T08:04:33;15.43;;;6.27;;
5147;SDS011;2592;48.140;7.614;2023-05-07T08:07:00;9.50;;;6.80;;
5147;SDS011;2592;48.140;7.614;2023-05-07T08:09:26;6.90;;;5.53;;
5147;SDS011;2592;48.140;7.614;2023-05-07T08:11:53;9.90;;;6.10;;
5147;SDS011;2592;48.140;7.614;2023-05-07T08:14:21;13.03;;;6.80;;
5147;SDS011;2592;48.140;7.614;2023-05-07T08:16:47;7.10;;;5.73;;
5147;SDS011;2592;48.140;7.614;2023-05-07T08:19:14;9.50;;;5.77;;
5147;SDS011;2592;48.140;7.614;2023-05-07T08:21:40;13.07;;;5.30;;
5147;SDS011;2592;48.140;7.614;2023-05-07T08:24:07;8.30;;;6.53;;
5147;SDS011;2592;48.140;7.614;2023-05-07T08:26:33;10.77;;;5.90;;
5147;SDS011;2592;48.140;7.614;2023-05-07T08:29:01;10.30;;;6.27;;
5147;SDS011;2592;48.140;7.614;2023-05-07T08:31:28;7.67;;;4.53;;
5147;SDS011;2592;48.140;7.614;2023-05-07T08:33:55;12.93;;;4.80;;
5147;SDS011;2592;48.140;7.614;2023-05-07T08:36:21;8.10;;;5.30;;
5147;SDS011;2592;48.140;7.614;2023-05-07T08:38:48;9.30;;;5.07;;
5147;SDS011;2592;48.140;7.614;2023-05-07T08:41:14;7.40;;;4.90;;
5147;SDS011;2592;48.140;7.614;2023-05-07T08:43:41;8.47;;;5.30;;
5147;SDS011;2592;48.140;7.614;2023-05-07T08:46:08;9.07;;;4.93;;
5147;SDS011;2592;48.140;7.614;2023-05-07T08:48:36;9.07;;;4.77;;
5147;SDS011;2592;48.140;7.614;2023-05-07T08:51:03;7.20;;;4.90;;
5147;SDS011;2592;48.140;7.614;2023-05-07T08:53:29;7.63;;;4.23;;
5147;SDS011;2592;48.140;7.614;2023-05-07T08:55:56;5.57;;;4.70;;
5147;SDS011;2592;48.140;7.614;2023-05-07T08:58:22;6.70;;;4.57;;
5147;SDS011;2592;48.140;7.614;2023-05-07T09:00:49;5.97;;;4.40;;
5147;SDS011;2592;48.140;7.614;2023-05-07T09:03:16;10.87;;;4.30;;
5147;SDS011;2592;48.140;7.614;2023-05-07T09:05:44;12.43;;;4.20;;
5147;SDS011;2592;48.140;7.614;2023-05-07T09:08:14;10.40;;;4.60;;
5147;SDS011;2592;48.140;7.614;2023-05-07T09:10:41;6.10;;;5.00;;
5147;SDS011;2592;48.140;7.614;2023-05-07T09:13:07;4.60;;;3.70;;
5147;SDS011;2592;48.140;7.614;2023-05-07T09:15:35;8.63;;;4.60;;
5147;SDS011;2592;48.140;7.614;2023-05-07T09:18:02;6.70;;;4.83;;
5147;SDS011;2592;48.140;7.614;2023-05-07T09:20:30;13.00;;;5.50;;
5147;SDS011;2592;48.140;7.614;2023-05-07T09:22:57;16.20;;;5.40;;
5147;SDS011;2592;48.140;7.614;2023-05-07T09:25:27;6.27;;;4.87;;
5147;SDS011;2592;48.140;7.614;2023-05-07T09:27:54;8.13;;;6.23;;
5147;SDS011;2592;48.140;7.614;2023-05-07T09:30:20;12.10;;;5.40;;
5147;SDS011;2592;48.140;7.614;2023-05-07T09:32:47;9.57;;;5.83;;
5147;SDS011;2592;48.140;7.614;2023-05-07T09:35:17;6.00;;;5.03;;
5147;SDS011;2592;48.140;7.614;2023-05-07T09:37:46;7.60;;;4.90;;
5147;SDS011;2592;48.140;7.614;2023-05-07T09:40:21;6.50;;;5.30;;
5147;SDS011;2592;48.140;7.614;2023-05-07T09:42:48;6.87;;;4.30;;
5147;SDS011;2592;48.140;7.614;2023-05-07T09:45:14;9.90;;;4.93;;
5147;SDS011;2592;48.140;7.614;2023-05-07T09:47:41;5.37;;;4.57;;
5147;SDS011;2592;48.140;7.614;2023-05-07T09:50:09;9.03;;;5.00;;
5147;SDS011;2592;48.140;7.614;2023-05-07T09:52:36;14.93;;;4.80;;
5147;SDS011;2592;48.140;7.614;2023-05-07T09:55:05;11.30;;;5.43;;
5147;SDS011;2592;48.140;7.614;2023-05-07T09:57:33;6.23;;;5.63;;
5147;SDS011;2592;48.140;7.614;2023-05-07T10:00:00;8.57;;;4.80;;
5147;SDS011;2592;48.140;7.614;2023-05-07T10:02:29;7.17;;;5.40;;
5147;SDS011;2592;48.140;7.614;2023-05-07T10:04:56;7.20;;;5.20;;
5147;SDS011;2592;48.140;7.614;2023-05-07T10:07:25;8.10;;;4.50;;
5147;SDS011;2592;48.140;7.614;2023-05-07T10:09:52;17.83;;;4.87;;
5147;SDS011;2592;48.140;7.614;2023-05-07T10:12:19;6.10;;;4.63;;
5147;SDS011;2592;48.140;7.614;2023-05-07T10:14:47;8.00;;;4.47;;
5147;SDS011;2592;48.140;7.614;2023-05-07T10:17:14;7.63;;;4.33;;
5147;SDS011;2592;48.140;7.614;2023-05-07T10:19:42;4.17;;;3.47;;
5147;SDS011;2592;48.140;7.614;2023-05-07T10:22:09;5.40;;;3.40;;
5147;SDS011;2592;48.140;7.614;2023-05-07T10:24:36;11.03;;;3.63;;
5147;SDS011;2592;48.140;7.614;2023-05-07T10:27:03;6.07;;;3.57;;
5147;SDS011;2592;48.140;7.614;2023-05-07T10:29:33;6.20;;;3.30;;
5147;SDS011;2592;48.140;7.614;2023-05-07T10:32:12;5.40;;;3.70;;
5147;SDS011;2592;48.140;7.614;2023-05-07T10:34:43;8.83;;;3.70;;
5147;SDS011;2592;48.140;7.614;2023-05-07T10:37:10;10.20;;;4.00;;
5147;SDS011;2592;48.140;7.614;2023-05-07T10:39:37;5.43;;;3.63;;
5147;SDS011;2592;48.140;7.614;2023-05-07T10:42:07;7.83;;;3.00;;
5147;SDS011;2592;48.140;7.614;2023-05-07T10:44:34;9.73;;;4.03;;
5147;SDS011;2592;48.140;7.614;2023-05-07T10:47:08;4.70;;;3.13;;
5147;SDS011;2592;48.140;7.614;2023-05-07T10:49:38;7.07;;;3.37;;
5147;SDS011;2592;48.140;7.614;2023-05-07T10:52:25;3.80;;;3.20;;
5147;SDS011;2592;48.140;7.614;2023-05-07T10:57:33;4.80;;;3.10;;
5147;SDS011;2592;48.140;7.614;2023-05-07T11:00:01;4.07;;;2.93;;
5147;SDS011;2592;48.140;7.614;2023-05-07T11:05:19;7.07;;;3.13;;
5147;SDS011;2592;48.140;7.614;2023-05-07T11:07:53;5.00;;;2.70;;
5147;SDS011;2592;48.140;7.614;2023-05-07T11:10:20;5.43;;;3.60;;
5147;SDS011;2592;48.140;7.614;2023-05-07T11:12:52;6.60;;;3.27;;
5147;SDS011;2592;48.140;7.614;2023-05-07T11:15:38;6.47;;;3.40;;
5147;SDS011;2592;48.140;7.614;2023-05-07T11:18:06;5.40;;;3.37;;
5147;SDS011;2592;48.140;7.614;2023-05-07T11:26:07;5.60;;;4.07;;
5147;SDS011;2592;48.140;7.614;2023-05-07T11:28:36;7.00;;;3.37;;
5147;SDS011;2592;48.140;7.614;2023-05-07T11:31:02;11.93;;;4.50;;
5147;SDS011;2592;48.140;7.614;2023-05-07T11:33:29;6.73;;;3.63;;
5147;SDS011;2592;48.140;7.614;2023-05-07T11:35:56;7.47;;;4.23;;
5147;SDS011;2592;48.140;7.614;2023-05-07T11:38:22;10.47;;;4.50;;
5147;SDS011;2592;48.140;7.614;2023-05-07T11:40:49;7.50;;;4.40;;
5147;SDS011;2592;48.140;7.614;2023-05-07T11:43:18;5.43;;;4.07;;
5147;SDS011;2592;48.140;7.614;2023-05-07T11:45:44;7.10;;;4.10;;
5147;SDS011;2592;48.140;7.614;2023-05-07T11:48:11;6.73;;;4.80;;
5147;SDS011;2592;48.140;7.614;2023-05-07T11:50:42;4.80;;;3.90;;
5147;SDS011;2592;48.140;7.614;2023-05-07T11:53:16;5.23;;;3.60;;
5147;SDS011;2592;48.140;7.614;2023-05-07T11:55:43;8.93;;;3.63;;
5147;SDS011;2592;48.140;7.614;2023-05-07T11:58:12;4.60;;;3.40;;
5147;SDS011;2592;48.140;7.614;2023-05-07T12:00:40;4.70;;;3.57;;
5147;SDS011;2592;48.140;7.614;2023-05-07T12:03:13;4.47;;;3.50;;
5147;SDS011;2592;48.140;7.614;2023-05-07T12:05:40;5.63;;;3.43;;
5147;SDS011;2592;48.140;7.614;2023-05-07T12:08:07;4.73;;;3.07;;
5147;SDS011;2592;48.140;7.614;2023-05-07T12:10:33;3.00;;;2.70;;
5147;SDS011;2592;48.140;7.614;2023-05-07T12:13:00;12.63;;;3.30;;
5147;SDS011;2592;48.140;7.614;2023-05-07T12:15:26;7.60;;;3.53;;
5147;SDS011;2592;48.140;7.614;2023-05-07T12:17:55;4.00;;;3.10;;
5147;SDS011;2592;48.140;7.614;2023-05-07T12:20:21;5.03;;;2.70;;
5147;SDS011;2592;48.140;7.614;2023-05-07T12:22:48;4.40;;;3.23;;
5147;SDS011;2592;48.140;7.614;2023-05-07T12:25:18;7.47;;;3.23;;
5147;SDS011;2592;48.140;7.614;2023-05-07T12:27:45;5.80;;;3.20;;
5147;SDS011;2592;48.140;7.614;2023-05-07T12:30:17;4.80;;;3.80;;
5147;SDS011;2592;48.140;7.614;2023-05-07T12:32:44;5.00;;;3.17;;
5147;SDS011;2592;48.140;7.614;2023-05-07T12:35:12;5.13;;;3.30;;
5147;SDS011;2592;48.140;7.614;2023-05-07T12:37:39;3.30;;;3.00;;
5147;SDS011;2592;48.140;7.614;2023-05-07T12:40:05;3.50;;;2.80;;
5147;SDS011;2592;48.140;7.614;2023-05-07T12:42:32;5.20;;;2.70;;
5147;SDS011;2592;48.140;7.614;2023-05-07T12:44:59;6.00;;;4.93;;
5147;SDS011;2592;48.140;7.614;2023-05-07T12:47:27;4.80;;;3.80;;
5147;SDS011;2592;48.140;7.614;2023-05-07T12:49:54;6.90;;;3.10;;
5147;SDS011;2592;48.140;7.614;2023-05-07T12:52:22;3.40;;;2.93;;
5147;SDS011;2592;48.140;7.614;2023-05-07T12:54:48;3.83;;;3.13;;
5147;SDS011;2592;48.140;7.614;2023-05-07T12:57:14;7.10;;;4.67;;
5147;SDS011;2592;48.140;7.614;2023-05-07T12:59:45;3.30;;;2.23;;
5147;SDS011;2592;48.140;7.614;2023-05-07T13:02:11;3.57;;;2.13;;
5147;SDS011;2592;48.140;7.614;2023-05-07T13:04:38;2.93;;;2.10;;
5147;SDS011;2592;48.140;7.614;2023-05-07T13:07:04;4.10;;;2.60;;
5147;SDS011;2592;48.140;7.614;2023-05-07T13:09:32;3.10;;;2.23;;
5147;SDS011;2592;48.140;7.614;2023-05-07T13:11:59;5.13;;;2.60;;
5147;SDS011;2592;48.140;7.614;2023-05-07T13:14:26;6.20;;;2.67;;
5147;SDS011;2592;48.140;7.614;2023-05-07T13:16:52;5.13;;;1.90;;
5147;SDS011;2592;48.140;7.614;2023-05-07T13:19:19;3.77;;;1.93;;
5147;SDS011;2592;48.140;7.614;2023-05-07T13:21:45;12.03;;;2.30;;
5147;SDS011;2592;48.140;7.614;2023-05-07T13:24:12;5.03;;;2.17;;
5147;SDS011;2592;48.140;7.614;2023-05-07T13:26:40;3.00;;;2.30;;
5147;SDS011;2592;48.140;7.614;2023-05-07T13:29:06;3.10;;;2.33;;
5147;SDS011;2592;48.140;7.614;2023-05-07T13:31:33;4.30;;;2.90;;
5147;SDS011;2592;48.140;7.614;2023-05-07T13:34:00;2.43;;;1.83;;
5147;SDS011;2592;48.140;7.614;2023-05-07T13:36:33;2.83;;;1.93;;
5147;SDS011;2592;48.140;7.614;2023-05-07T13:39:04;11.20;;;1.90;;
5147;SDS011;2592;48.140;7.614;2023-05-07T13:41:31;2.13;;;1.70;;
5147;SDS011;2592;48.140;7.614;2023-05-07T13:43:59;3.30;;;2.10;;
5147;SDS011;2592;48.140;7.614;2023-05-07T13:46:25;4.57;;;1.80;;
5147;SDS011;2592;48.140;7.614;2023-05-07T13:48:52;4.30;;;2.00;;
5147;SDS011;2592;48.140;7.614;2023-05-07T13:51:18;8.73;;;1.80;;
5147;SDS011;2592;48.140;7.614;2023-05-07T13:53:45;3.37;;;2.00;;
5147;SDS011;2592;48.140;7.614;2023-05-07T13:56:12;6.43;;;1.97;;
5147;SDS011;2592;48.140;7.614;2023-05-07T13:58:39;3.53;;;2.23;;
5147;SDS011;2592;48.140;7.614;2023-05-07T14:01:07;2.47;;;1.90;;
5147;SDS011;2592;48.140;7.614;2023-05-07T14:03:33;3.50;;;2.07;;
5147;SDS011;2592;48.140;7.614;2023-05-07T14:06:02;4.30;;;1.60;;
5147;SDS011;2592;48.140;7.614;2023-05-07T14:08:29;5.97;;;2.00;;
5147;SDS011;2592;48.140;7.614;2023-05-07T14:10:55;3.63;;;1.90;;
5147;SDS011;2592;48.140;7.614;2023-05-07T14:13:22;2.90;;;1.97;;
5147;SDS011;2592;48.140;7.614;2023-05-07T14:15:48;5.57;;;2.97;;
5147;SDS011;2592;48.140;7.614;2023-05-07T14:18:16;3.63;;;2.30;;
5147;SDS011;2592;48.140;7.614;2023-05-07T14:20:43;2.97;;;2.10;;
5147;SDS011;2592;48.140;7.614;2023-05-07T14:23:11;2.50;;;1.63;;
5147;SDS011;2592;48.140;7.614;2023-05-07T14:25:37;4.03;;;2.00;;
5147;SDS011;2592;48.140;7.614;2023-05-07T14:28:04;3.20;;;1.70;;
5147;SDS011;2592;48.140;7.614;2023-05-07T14:30:30;4.50;;;3.03;;
5147;SDS011;2592;48.140;7.614;2023-05-07T14:32:57;6.97;;;3.40;;
5147;SDS011;2592;48.140;7.614;2023-05-07T14:35:25;4.67;;;3.20;;
5147;SDS011;2592;48.140;7.614;2023-05-07T14:37:51;4.67;;;2.87;;
5147;SDS011;2592;48.140;7.614;2023-05-07T14:40:18;3.23;;;2.23;;
5147;SDS011;2592;48.140;7.614;2023-05-07T14:42:44;2.87;;;2.40;;
5147;SDS011;2592;48.140;7.614;2023-05-07T14:45:11;3.70;;;2.30;;
5147;SDS011;2592;48.140;7.614;2023-05-07T14:47:37;3.30;;;2.40;;
5147;SDS011;2592;48.140;7.614;2023-05-07T14:50:04;3.53;;;2.10;;
5147;SDS011;2592;48.140;7.614;2023-05-07T14:52:32;6.13;;;1.90;;
5147;SDS011;2592;48.140;7.614;2023-05-07T14:54:59;3.47;;;2.43;;
5147;SDS011;2592;48.140;7.614;2023-05-07T14:57:25;4.13;;;2.20;;
5147;SDS011;2592;48.140;7.614;2023-05-07T14:59:52;4.73;;;2.20;;
5147;SDS011;2592;48.140;7.614;2023-05-07T15:02:18;2.70;;;1.97;;
5147;SDS011;2592;48.140;7.614;2023-05-07T15:04:45;3.27;;;2.00;;
5147;SDS011;2592;48.140;7.614;2023-05-07T15:07:11;8.73;;;2.80;;
5147;SDS011;2592;48.140;7.614;2023-05-07T15:09:41;3.90;;;2.00;;
5147;SDS011;2592;48.140;7.614;2023-05-07T15:12:08;3.00;;;1.80;;
5147;SDS011;2592;48.140;7.614;2023-05-07T15:14:34;1.87;;;1.43;;
5147;SDS011;2592;48.140;7.614;2023-05-07T15:17:00;2.73;;;1.50;;
5147;SDS011;2592;48.140;7.614;2023-05-07T15:19:27;3.07;;;1.60;;
5147;SDS011;2592;48.140;7.614;2023-05-07T15:21:54;2.50;;;1.70;;
5147;SDS011;2592;48.140;7.614;2023-05-07T15:24:21;2.60;;;1.50;;